Farris, Minnesota
Current Conditions -  °F | °C
As of 12:35 AM on Thursday 27 Nov 2014 (Local Time) from KY49 Reporting Station
Clear Clear  
Wind Chill: -10°   Ceiling: Unl
Heat Index: -10°   Visibility: 10mi
Dew Point: -15°   Wind: 3mph
Humidity: 82%   Direction: 260°W
Pressure: 30.45"   Gusts: NA
Location:  47.3012°N, 94.5426°W
Report Text: KY49 270635Z AUTO 26003KT 10SM CLR M24/M26 A3045 RMK AO2 T12361259
Loading
Personal Weather Stations






























Interactive Weather Map New forecast layout! Learn more

10-Day Weather Forecast

Advertisements
Track Severe Weather on mobile